sensor_id;sensor_type;location;lat;lon;timestamp;P1;durP1;ratioP1;P2;durP2;ratioP2
3297;SDS011;1661;53.572;10.174;2023-04-24T00:01:53;17.93;;;8.47;;
3297;SDS011;1661;53.572;10.174;2023-04-24T00:04:21;7.73;;;7.13;;
3297;SDS011;1661;53.572;10.174;2023-04-24T00:06:50;8.90;;;8.10;;
3297;SDS011;1661;53.572;10.174;2023-04-24T00:09:19;8.40;;;7.70;;
3297;SDS011;1661;53.572;10.174;2023-04-24T00:11:46;9.60;;;8.20;;
3297;SDS011;1661;53.572;10.174;2023-04-24T00:14:14;8.17;;;7.47;;
3297;SDS011;1661;53.572;10.174;2023-04-24T00:16:44;8.83;;;8.03;;
3297;SDS011;1661;53.572;10.174;2023-04-24T00:19:10;10.20;;;9.20;;
3297;SDS011;1661;53.572;10.174;2023-04-24T00:21:41;9.20;;;7.63;;
3297;SDS011;1661;53.572;10.174;2023-04-24T00:24:08;9.03;;;8.10;;
3297;SDS011;1661;53.572;10.174;2023-04-24T00:26:38;11.40;;;8.20;;
3297;SDS011;1661;53.572;10.174;2023-04-24T00:29:05;9.90;;;8.90;;
3297;SDS011;1661;53.572;10.174;2023-04-24T00:31:35;8.40;;;7.70;;
3297;SDS011;1661;53.572;10.174;2023-04-24T00:34:02;15.33;;;9.47;;
3297;SDS011;1661;53.572;10.174;2023-04-24T00:36:32;8.60;;;7.80;;
3297;SDS011;1661;53.572;10.174;2023-04-24T00:39:00;9.33;;;8.47;;
3297;SDS011;1661;53.572;10.174;2023-04-24T00:41:27;9.23;;;8.17;;
3297;SDS011;1661;53.572;10.174;2023-04-24T00:43:54;9.60;;;8.80;;
3297;SDS011;1661;53.572;10.174;2023-04-24T00:46:21;9.97;;;8.97;;
3297;SDS011;1661;53.572;10.174;2023-04-24T00:48:49;10.10;;;8.43;;
3297;SDS011;1661;53.572;10.174;2023-04-24T00:51:16;10.37;;;8.60;;
3297;SDS011;1661;53.572;10.174;2023-04-24T00:53:46;9.87;;;9.07;;
3297;SDS011;1661;53.572;10.174;2023-04-24T00:56:16;9.80;;;9.00;;
3297;SDS011;1661;53.572;10.174;2023-04-24T00:58:43;9.10;;;8.33;;
3297;SDS011;1661;53.572;10.174;2023-04-24T01:01:11;11.30;;;9.77;;
3297;SDS011;1661;53.572;10.174;2023-04-24T01:03:40;10.93;;;9.13;;
3297;SDS011;1661;53.572;10.174;2023-04-24T01:06:08;10.23;;;9.37;;
3297;SDS011;1661;53.572;10.174;2023-04-24T01:08:36;9.10;;;8.30;;
3297;SDS011;1661;53.572;10.174;2023-04-24T01:11:04;14.23;;;10.00;;
3297;SDS011;1661;53.572;10.174;2023-04-24T01:13:31;10.27;;;9.23;;
3297;SDS011;1661;53.572;10.174;2023-04-24T01:15:58;10.40;;;9.40;;
3297;SDS011;1661;53.572;10.174;2023-04-24T01:18:29;10.03;;;9.00;;
3297;SDS011;1661;53.572;10.174;2023-04-24T01:20:56;11.63;;;9.17;;
3297;SDS011;1661;53.572;10.174;2023-04-24T01:23:26;8.87;;;7.97;;
3297;SDS011;1661;53.572;10.174;2023-04-24T01:25:53;11.03;;;10.03;;
3297;SDS011;1661;53.572;10.174;2023-04-24T01:28:20;10.30;;;7.90;;
3297;SDS011;1661;53.572;10.174;2023-04-24T01:30:47;8.60;;;7.90;;
3297;SDS011;1661;53.572;10.174;2023-04-24T01:33:14;8.60;;;7.70;;
3297;SDS011;1661;53.572;10.174;2023-04-24T01:35:42;8.57;;;7.33;;
3297;SDS011;1661;53.572;10.174;2023-04-24T01:38:09;6.87;;;6.27;;
3297;SDS011;1661;53.572;10.174;2023-04-24T01:40:37;6.47;;;5.97;;
3297;SDS011;1661;53.572;10.174;2023-04-24T01:43:04;6.80;;;6.20;;
3297;SDS011;1661;53.572;10.174;2023-04-24T01:45:31;6.63;;;6.10;;
3297;SDS011;1661;53.572;10.174;2023-04-24T01:47:58;6.77;;;6.07;;
3297;SDS011;1661;53.572;10.174;2023-04-24T01:50:26;6.00;;;5.50;;
3297;SDS011;1661;53.572;10.174;2023-04-24T01:52:53;7.43;;;6.10;;
3297;SDS011;1661;53.572;10.174;2023-04-24T01:55:20;6.10;;;5.50;;
3297;SDS011;1661;53.572;10.174;2023-04-24T01:57:48;15.13;;;5.80;;
3297;SDS011;1661;53.572;10.174;2023-04-24T02:00:16;5.80;;;5.40;;
3297;SDS011;1661;53.572;10.174;2023-04-24T02:02:42;6.07;;;5.57;;
3297;SDS011;1661;53.572;10.174;2023-04-24T02:05:13;5.37;;;4.70;;
3297;SDS011;1661;53.572;10.174;2023-04-24T02:07:40;8.60;;;6.30;;
3297;SDS011;1661;53.572;10.174;2023-04-24T02:10:07;5.00;;;4.70;;
3297;SDS011;1661;53.572;10.174;2023-04-24T02:12:37;6.23;;;5.40;;
3297;SDS011;1661;53.572;10.174;2023-04-24T02:15:05;6.10;;;4.83;;
3297;SDS011;1661;53.572;10.174;2023-04-24T02:17:32;5.63;;;5.23;;
3297;SDS011;1661;53.572;10.174;2023-04-24T02:20:01;5.10;;;4.80;;
3297;SDS011;1661;53.572;10.174;2023-04-24T02:22:29;5.57;;;5.17;;
3297;SDS011;1661;53.572;10.174;2023-04-24T02:24:56;6.80;;;6.10;;
3297;SDS011;1661;53.572;10.174;2023-04-24T02:27:23;5.43;;;4.93;;
3297;SDS011;1661;53.572;10.174;2023-04-24T02:29:50;5.63;;;5.23;;
3297;SDS011;1661;53.572;10.174;2023-04-24T02:32:18;6.70;;;5.83;;
3297;SDS011;1661;53.572;10.174;2023-04-24T02:34:44;5.37;;;4.87;;
3297;SDS011;1661;53.572;10.174;2023-04-24T02:37:11;4.57;;;4.17;;
3297;SDS011;1661;53.572;10.174;2023-04-24T02:39:38;5.60;;;5.10;;
3297;SDS011;1661;53.572;10.174;2023-04-24T02:42:05;8.17;;;4.97;;
3297;SDS011;1661;53.572;10.174;2023-04-24T02:44:33;5.43;;;4.93;;
3297;SDS011;1661;53.572;10.174;2023-04-24T02:47:00;5.17;;;4.70;;
3297;SDS011;1661;53.572;10.174;2023-04-24T02:49:30;5.30;;;4.90;;
3297;SDS011;1661;53.572;10.174;2023-04-24T02:51:57;4.30;;;4.00;;
3297;SDS011;1661;53.572;10.174;2023-04-24T02:54:24;5.03;;;4.60;;
3297;SDS011;1661;53.572;10.174;2023-04-24T02:56:51;4.20;;;3.87;;
3297;SDS011;1661;53.572;10.174;2023-04-24T02:59:17;4.50;;;4.20;;
3297;SDS011;1661;53.572;10.174;2023-04-24T03:01:44;4.00;;;3.80;;
3297;SDS011;1661;53.572;10.174;2023-04-24T03:04:11;8.03;;;4.53;;
3297;SDS011;1661;53.572;10.174;2023-04-24T03:06:39;3.83;;;3.53;;
3297;SDS011;1661;53.572;10.174;2023-04-24T03:09:06;4.57;;;4.27;;
3297;SDS011;1661;53.572;10.174;2023-04-24T03:11:32;5.00;;;3.20;;
3297;SDS011;1661;53.572;10.174;2023-04-24T03:13:59;4.57;;;3.40;;
3297;SDS011;1661;53.572;10.174;2023-04-24T03:16:26;5.43;;;3.73;;
3297;SDS011;1661;53.572;10.174;2023-04-24T03:18:53;4.53;;;3.77;;
3297;SDS011;1661;53.572;10.174;2023-04-24T03:21:20;8.77;;;3.30;;
3297;SDS011;1661;53.572;10.174;2023-04-24T03:23:48;2.80;;;2.33;;
3297;SDS011;1661;53.572;10.174;2023-04-24T03:26:15;3.10;;;2.90;;
3297;SDS011;1661;53.572;10.174;2023-04-24T03:28:44;2.70;;;2.50;;
3297;SDS011;1661;53.572;10.174;2023-04-24T03:31:14;3.10;;;2.77;;
3297;SDS011;1661;53.572;10.174;2023-04-24T03:33:41;3.30;;;2.80;;
3297;SDS011;1661;53.572;10.174;2023-04-24T03:36:08;3.63;;;2.77;;
3297;SDS011;1661;53.572;10.174;2023-04-24T03:38:35;3.23;;;3.03;;
3297;SDS011;1661;53.572;10.174;2023-04-24T03:41:03;2.30;;;2.20;;
3297;SDS011;1661;53.572;10.174;2023-04-24T03:43:30;2.63;;;2.43;;
3297;SDS011;1661;53.572;10.174;2023-04-24T03:45:58;2.33;;;2.13;;
3297;SDS011;1661;53.572;10.174;2023-04-24T03:48:25;4.30;;;2.40;;
3297;SDS011;1661;53.572;10.174;2023-04-24T03:50:52;3.37;;;3.17;;
3297;SDS011;1661;53.572;10.174;2023-04-24T03:53:18;2.83;;;2.63;;
3297;SDS011;1661;53.572;10.174;2023-04-24T03:55:45;2.97;;;2.77;;
3297;SDS011;1661;53.572;10.174;2023-04-24T03:58:14;5.40;;;2.50;;
3297;SDS011;1661;53.572;10.174;2023-04-24T04:00:43;2.97;;;2.77;;
3297;SDS011;1661;53.572;10.174;2023-04-24T04:03:11;2.50;;;2.30;;
3297;SDS011;1661;53.572;10.174;2023-04-24T04:05:38;2.77;;;2.57;;
3297;SDS011;1661;53.572;10.174;2023-04-24T04:08:05;2.47;;;2.27;;
3297;SDS011;1661;53.572;10.174;2023-04-24T04:10:32;3.00;;;2.80;;
3297;SDS011;1661;53.572;10.174;2023-04-24T04:12:59;2.70;;;2.50;;
3297;SDS011;1661;53.572;10.174;2023-04-24T04:15:27;3.43;;;3.13;;
3297;SDS011;1661;53.572;10.174;2023-04-24T04:17:54;2.50;;;2.30;;
3297;SDS011;1661;53.572;10.174;2023-04-24T04:20:20;2.87;;;2.67;;
3297;SDS011;1661;53.572;10.174;2023-04-24T04:22:50;3.10;;;2.80;;
3297;SDS011;1661;53.572;10.174;2023-04-24T04:25:17;2.63;;;2.43;;
3297;SDS011;1661;53.572;10.174;2023-04-24T04:27:50;2.60;;;2.20;;
3297;SDS011;1661;53.572;10.174;2023-04-24T04:30:20;2.47;;;2.17;;
3297;SDS011;1661;53.572;10.174;2023-04-24T04:32:48;2.80;;;2.60;;
3297;SDS011;1661;53.572;10.174;2023-04-24T04:35:15;2.80;;;2.60;;
3297;SDS011;1661;53.572;10.174;2023-04-24T04:37:47;2.30;;;2.20;;
3297;SDS011;1661;53.572;10.174;2023-04-24T04:40:14;4.50;;;2.27;;
3297;SDS011;1661;53.572;10.174;2023-04-24T04:42:41;7.13;;;3.40;;
3297;SDS011;1661;53.572;10.174;2023-04-24T04:45:11;2.30;;;2.10;;
3297;SDS011;1661;53.572;10.174;2023-04-24T04:47:38;2.30;;;2.10;;
3297;SDS011;1661;53.572;10.174;2023-04-24T04:50:09;2.57;;;2.37;;
3297;SDS011;1661;53.572;10.174;2023-04-24T04:52:36;2.57;;;2.37;;
3297;SDS011;1661;53.572;10.174;2023-04-24T04:55:03;2.50;;;2.40;;
3297;SDS011;1661;53.572;10.174;2023-04-24T04:57:31;2.63;;;2.53;;
3297;SDS011;1661;53.572;10.174;2023-04-24T04:59:58;2.73;;;2.53;;
3297;SDS011;1661;53.572;10.174;2023-04-24T05:02:25;2.63;;;2.43;;
3297;SDS011;1661;53.572;10.174;2023-04-24T05:04:51;2.63;;;2.37;;
3297;SDS011;1661;53.572;10.174;2023-04-24T05:07:23;2.50;;;2.30;;
3297;SDS011;1661;53.572;10.174;2023-04-24T05:09:49;2.47;;;2.27;;
3297;SDS011;1661;53.572;10.174;2023-04-24T05:12:17;3.20;;;2.47;;
3297;SDS011;1661;53.572;10.174;2023-04-24T05:14:44;2.43;;;2.07;;
3297;SDS011;1661;53.572;10.174;2023-04-24T05:17:10;3.43;;;1.90;;
3297;SDS011;1661;53.572;10.174;2023-04-24T05:19:37;6.70;;;2.60;;
3297;SDS011;1661;53.572;10.174;2023-04-24T05:22:07;3.30;;;2.30;;
3297;SDS011;1661;53.572;10.174;2023-04-24T05:24:38;2.70;;;2.50;;
3297;SDS011;1661;53.572;10.174;2023-04-24T05:27:05;2.53;;;2.20;;
3297;SDS011;1661;53.572;10.174;2023-04-24T05:29:32;2.27;;;2.07;;
3297;SDS011;1661;53.572;10.174;2023-04-24T05:32:02;2.23;;;2.13;;
3297;SDS011;1661;53.572;10.174;2023-04-24T05:34:29;2.13;;;2.00;;
3297;SDS011;1661;53.572;10.174;2023-04-24T05:36:55;2.30;;;1.90;;
3297;SDS011;1661;53.572;10.174;2023-04-24T05:39:22;3.00;;;2.70;;
3297;SDS011;1661;53.572;10.174;2023-04-24T05:41:51;2.47;;;1.87;;
3297;SDS011;1661;53.572;10.174;2023-04-24T05:44:18;2.77;;;2.60;;
3297;SDS011;1661;53.572;10.174;2023-04-24T05:46:44;2.00;;;1.90;;
3297;SDS011;1661;53.572;10.174;2023-04-24T05:49:11;2.23;;;2.13;;
3297;SDS011;1661;53.572;10.174;2023-04-24T05:51:38;1.67;;;1.57;;
3297;SDS011;1661;53.572;10.174;2023-04-24T05:54:05;2.63;;;2.43;;
3297;SDS011;1661;53.572;10.174;2023-04-24T05:56:32;2.00;;;1.90;;
3297;SDS011;1661;53.572;10.174;2023-04-24T05:59:00;5.17;;;1.77;;
3297;SDS011;1661;53.572;10.174;2023-04-24T06:01:27;1.63;;;1.53;;
3297;SDS011;1661;53.572;10.174;2023-04-24T06:03:53;2.37;;;2.17;;
3297;SDS011;1661;53.572;10.174;2023-04-24T06:06:20;2.10;;;2.00;;
3297;SDS011;1661;53.572;10.174;2023-04-24T06:08:47;2.60;;;1.70;;
3297;SDS011;1661;53.572;10.174;2023-04-24T06:11:17;2.20;;;1.90;;
3297;SDS011;1661;53.572;10.174;2023-04-24T06:13:46;3.20;;;1.90;;
3297;SDS011;1661;53.572;10.174;2023-04-24T06:16:15;1.80;;;1.63;;
3297;SDS011;1661;53.572;10.174;2023-04-24T06:18:45;2.10;;;1.90;;
3297;SDS011;1661;53.572;10.174;2023-04-24T06:21:12;3.07;;;2.60;;
3297;SDS011;1661;53.572;10.174;2023-04-24T06:23:41;2.73;;;2.53;;
3297;SDS011;1661;53.572;10.174;2023-04-24T06:26:11;3.77;;;1.97;;
3297;SDS011;1661;53.572;10.174;2023-04-24T06:28:38;4.83;;;1.87;;
3297;SDS011;1661;53.572;10.174;2023-04-24T06:31:05;2.27;;;2.07;;
3297;SDS011;1661;53.572;10.174;2023-04-24T06:33:36;2.07;;;1.83;;
3297;SDS011;1661;53.572;10.174;2023-04-24T06:36:02;2.73;;;1.83;;
3297;SDS011;1661;53.572;10.174;2023-04-24T06:38:30;2.50;;;2.30;;
3297;SDS011;1661;53.572;10.174;2023-04-24T06:40:56;2.20;;;2.00;;
3297;SDS011;1661;53.572;10.174;2023-04-24T06:43:23;2.77;;;2.30;;
3297;SDS011;1661;53.572;10.174;2023-04-24T06:45:50;3.70;;;2.03;;
3297;SDS011;1661;53.572;10.174;2023-04-24T06:48:20;4.33;;;2.70;;
3297;SDS011;1661;53.572;10.174;2023-04-24T06:50:48;3.57;;;3.10;;
3297;SDS011;1661;53.572;10.174;2023-04-24T06:53:15;3.20;;;3.00;;
3297;SDS011;1661;53.572;10.174;2023-04-24T06:55:41;2.50;;;2.30;;
3297;SDS011;1661;53.572;10.174;2023-04-24T06:58:09;3.53;;;2.33;;
3297;SDS011;1661;53.572;10.174;2023-04-24T07:00:37;3.17;;;2.80;;
3297;SDS011;1661;53.572;10.174;2023-04-24T07:03:04;2.60;;;2.40;;
3297;SDS011;1661;53.572;10.174;2023-04-24T07:05:31;4.43;;;3.10;;
3297;SDS011;1661;53.572;10.174;2023-04-24T07:08:00;2.90;;;2.70;;
3297;SDS011;1661;53.572;10.174;2023-04-24T07:10:26;2.97;;;2.60;;
3297;SDS011;1661;53.572;10.174;2023-04-24T07:12:56;4.80;;;3.20;;
3297;SDS011;1661;53.572;10.174;2023-04-24T07:15:23;4.20;;;2.73;;
3297;SDS011;1661;53.572;10.174;2023-04-24T07:17:50;3.60;;;3.30;;
3297;SDS011;1661;53.572;10.174;2023-04-24T07:20:17;5.03;;;2.80;;
3297;SDS011;1661;53.572;10.174;2023-04-24T07:22:46;2.87;;;2.67;;
3297;SDS011;1661;53.572;10.174;2023-04-24T07:25:16;2.93;;;2.73;;
3297;SDS011;1661;53.572;10.174;2023-04-24T07:27:43;3.07;;;2.87;;
3297;SDS011;1661;53.572;10.174;2023-04-24T07:30:10;3.57;;;2.80;;
3297;SDS011;1661;53.572;10.174;2023-04-24T07:32:37;3.57;;;2.97;;
3297;SDS011;1661;53.572;10.174;2023-04-24T07:35:05;4.07;;;3.77;;
3297;SDS011;1661;53.572;10.174;2023-04-24T07:37:32;2.90;;;2.70;;
3297;SDS011;1661;53.572;10.174;2023-04-24T07:39:59;3.27;;;3.07;;
3297;SDS011;1661;53.572;10.174;2023-04-24T07:42:30;4.00;;;3.70;;
3297;SDS011;1661;53.572;10.174;2023-04-24T07:44:59;5.37;;;3.37;;
3297;SDS011;1661;53.572;10.174;2023-04-24T07:47:26;3.80;;;3.60;;
3297;SDS011;1661;53.572;10.174;2023-04-24T07:49:53;3.67;;;3.37;;
3297;SDS011;1661;53.572;10.174;2023-04-24T07:52:20;3.77;;;3.57;;
3297;SDS011;1661;53.572;10.174;2023-04-24T07:54:46;4.37;;;3.97;;
3297;SDS011;1661;53.572;10.174;2023-04-24T07:57:14;3.70;;;3.23;;
3297;SDS011;1661;53.572;10.174;2023-04-24T07:59:42;4.10;;;3.23;;
3297;SDS011;1661;53.572;10.174;2023-04-24T08:02:09;3.63;;;3.33;;
3297;SDS011;1661;53.572;10.174;2023-04-24T08:04:36;3.50;;;3.30;;
3297;SDS011;1661;53.572;10.174;2023-04-24T08:07:03;3.30;;;2.70;;
3297;SDS011;1661;53.572;10.174;2023-04-24T08:09:30;3.63;;;3.33;;
3297;SDS011;1661;53.572;10.174;2023-04-24T08:11:57;3.93;;;3.73;;
3297;SDS011;1661;53.572;10.174;2023-04-24T08:14:23;3.57;;;3.37;;
3297;SDS011;1661;53.572;10.174;2023-04-24T08:16:52;4.20;;;4.00;;
3297;SDS011;1661;53.572;10.174;2023-04-24T08:19:19;5.00;;;4.50;;
3297;SDS011;1661;53.572;10.174;2023-04-24T08:21:46;4.40;;;4.20;;
3297;SDS011;1661;53.572;10.174;2023-04-24T08:24:13;4.60;;;4.30;;
3297;SDS011;1661;53.572;10.174;2023-04-24T08:26:40;4.80;;;4.50;;
3297;SDS011;1661;53.572;10.174;2023-04-24T08:29:09;5.80;;;5.40;;
3297;SDS011;1661;53.572;10.174;2023-04-24T08:31:36;4.33;;;4.03;;
3297;SDS011;1661;53.572;10.174;2023-04-24T08:34:06;6.83;;;4.67;;
3297;SDS011;1661;53.572;10.174;2023-04-24T08:36:32;5.23;;;4.83;;
3297;SDS011;1661;53.572;10.174;2023-04-24T08:39:00;5.47;;;4.40;;
3297;SDS011;1661;53.572;10.174;2023-04-24T08:41:26;12.30;;;5.40;;
3297;SDS011;1661;53.572;10.174;2023-04-24T08:43:53;7.57;;;5.60;;
3297;SDS011;1661;53.572;10.174;2023-04-24T08:46:23;5.40;;;5.00;;
3297;SDS011;1661;53.572;10.174;2023-04-24T08:48:51;7.00;;;5.73;;
3297;SDS011;1661;53.572;10.174;2023-04-24T08:51:20;7.37;;;6.70;;
3297;SDS011;1661;53.572;10.174;2023-04-24T08:53:47;8.00;;;7.33;;
3297;SDS011;1661;53.572;10.174;2023-04-24T08:56:14;7.53;;;6.90;;
3297;SDS011;1661;53.572;10.174;2023-04-24T08:58:42;8.27;;;7.37;;
3297;SDS011;1661;53.572;10.174;2023-04-24T09:01:10;7.90;;;7.10;;
3297;SDS011;1661;53.572;10.174;2023-04-24T09:03:38;10.30;;;7.47;;
3297;SDS011;1661;53.572;10.174;2023-04-24T09:06:06;6.77;;;5.97;;
3297;SDS011;1661;53.572;10.174;2023-04-24T09:08:39;6.10;;;5.57;;
3297;SDS011;1661;53.572;10.174;2023-04-24T09:11:08;7.33;;;6.77;;
3297;SDS011;1661;53.572;10.174;2023-04-24T09:13:35;5.53;;;5.13;;
3297;SDS011;1661;53.572;10.174;2023-04-24T09:16:06;5.17;;;4.77;;
3297;SDS011;1661;53.572;10.174;2023-04-24T09:18:33;4.27;;;3.97;;
3297;SDS011;1661;53.572;10.174;2023-04-24T09:21:00;6.57;;;4.80;;
3297;SDS011;1661;53.572;10.174;2023-04-24T09:23:29;5.00;;;4.70;;
3297;SDS011;1661;53.572;10.174;2023-04-24T09:25:58;4.83;;;4.43;;
3297;SDS011;1661;53.572;10.174;2023-04-24T09:28:29;4.77;;;4.37;;
3297;SDS011;1661;53.572;10.174;2023-04-24T09:31:04;4.60;;;4.30;;
3297;SDS011;1661;53.572;10.174;2023-04-24T09:33:32;7.00;;;6.27;;
3297;SDS011;1661;53.572;10.174;2023-04-24T09:35:58;6.60;;;5.83;;
3297;SDS011;1661;53.572;10.174;2023-04-24T09:38:32;5.53;;;5.20;;
3297;SDS011;1661;53.572;10.174;2023-04-24T09:41:02;5.63;;;5.17;;
3297;SDS011;1661;53.572;10.174;2023-04-24T09:43:30;5.57;;;5.07;;
3297;SDS011;1661;53.572;10.174;2023-04-24T09:45:57;7.77;;;7.17;;
3297;SDS011;1661;53.572;10.174;2023-04-24T09:48:32;7.17;;;6.67;;
3297;SDS011;1661;53.572;10.174;2023-04-24T09:50:59;6.90;;;6.40;;
3297;SDS011;1661;53.572;10.174;2023-04-24T09:53:28;7.70;;;6.97;;
3297;SDS011;1661;53.572;10.174;2023-04-24T09:55:56;6.90;;;6.20;;
3297;SDS011;1661;53.572;10.174;2023-04-24T09:58:29;7.20;;;6.50;;
3297;SDS011;1661;53.572;10.174;2023-04-24T10:00:56;6.83;;;6.30;;
3297;SDS011;1661;53.572;10.174;2023-04-24T10:03:23;8.13;;;7.43;;
3297;SDS011;1661;53.572;10.174;2023-04-24T10:05:52;7.97;;;7.17;;
3297;SDS011;1661;53.572;10.174;2023-04-24T10:08:20;8.60;;;7.80;;
3297;SDS011;1661;53.572;10.174;2023-04-24T10:10:53;7.50;;;6.90;;
3297;SDS011;1661;53.572;10.174;2023-04-24T10:13:22;7.43;;;6.90;;
3297;SDS011;1661;53.572;10.174;2023-04-24T10:15:51;7.30;;;6.80;;
3297;SDS011;1661;53.572;10.174;2023-04-24T10:18:17;7.30;;;6.80;;
3297;SDS011;1661;53.572;10.174;2023-04-24T10:20:49;7.93;;;7.20;;
3297;SDS011;1661;53.572;10.174;2023-04-24T10:23:16;8.83;;;7.93;;
3297;SDS011;1661;53.572;10.174;2023-04-24T10:25:45;9.03;;;7.07;;
3297;SDS011;1661;53.572;10.174;2023-04-24T10:28:12;6.47;;;5.97;;
3297;SDS011;1661;53.572;10.174;2023-04-24T10:30:39;7.97;;;7.37;;
3297;SDS011;1661;53.572;10.174;2023-04-24T10:33:10;10.23;;;7.50;;
3297;SDS011;1661;53.572;10.174;2023-04-24T10:35:39;9.30;;;8.40;;
3297;SDS011;1661;53.572;10.174;2023-04-24T10:38:09;12.03;;;8.07;;
3297;SDS011;1661;53.572;10.174;2023-04-24T10:40:48;10.57;;;9.60;;
3297;SDS011;1661;53.572;10.174;2023-04-24T10:43:16;10.47;;;9.47;;
3297;SDS011;1661;53.572;10.174;2023-04-24T10:45:59;9.97;;;9.17;;
3297;SDS011;1661;53.572;10.174;2023-04-24T10:48:28;10.47;;;9.47;;
3297;SDS011;1661;53.572;10.174;2023-04-24T10:50:55;10.77;;;9.67;;
3297;SDS011;1661;53.572;10.174;2023-04-24T10:53:22;13.00;;;11.70;;
3297;SDS011;1661;53.572;10.174;2023-04-24T10:55:52;10.20;;;9.30;;
3297;SDS011;1661;53.572;10.174;2023-04-24T10:58:35;13.20;;;11.83;;
3297;SDS011;1661;53.572;10.174;2023-04-24T11:01:05;13.33;;;11.93;;
3297;SDS011;1661;53.572;10.174;2023-04-24T11:03:36;12.70;;;10.83;;
3297;SDS011;1661;53.572;10.174;2023-04-24T11:06:07;11.30;;;10.10;;
3297;SDS011;1661;53.572;10.174;2023-04-24T11:08:38;13.63;;;12.07;;
3297;SDS011;1661;53.572;10.174;2023-04-24T11:11:09;11.40;;;9.47;;
3297;SDS011;1661;53.572;10.174;2023-04-24T11:16:37;11.83;;;10.50;;
3297;SDS011;1661;53.572;10.174;2023-04-24T11:19:09;13.00;;;11.37;;
3297;SDS011;1661;53.572;10.174;2023-04-24T11:21:43;13.03;;;11.73;;
3297;SDS011;1661;53.572;10.174;2023-04-24T11:24:21;11.80;;;10.43;;
3297;SDS011;1661;53.572;10.174;2023-04-24T11:26:53;12.03;;;10.83;;
3297;SDS011;1661;53.572;10.174;2023-04-24T11:29:21;15.03;;;12.37;;
3297;SDS011;1661;53.572;10.174;2023-04-24T11:31:49;14.80;;;11.13;;
3297;SDS011;1661;53.572;10.174;2023-04-24T11:34:18;12.70;;;11.43;;
3297;SDS011;1661;53.572;10.174;2023-04-24T11:36:45;12.00;;;10.40;;
3297;SDS011;1661;53.572;10.174;2023-04-24T11:39:13;14.70;;;12.43;;
3297;SDS011;1661;53.572;10.174;2023-04-24T11:41:40;12.07;;;10.87;;
3297;SDS011;1661;53.572;10.174;2023-04-24T11:44:07;13.27;;;10.83;;
3297;SDS011;1661;53.572;10.174;2023-04-24T11:46:36;11.77;;;10.77;;
3297;SDS011;1661;53.572;10.174;2023-04-24T11:49:05;12.00;;;10.53;;
3297;SDS011;1661;53.572;10.174;2023-04-24T11:51:33;12.13;;;10.90;;
3297;SDS011;1661;53.572;10.174;2023-04-24T11:54:00;13.53;;;10.47;;
3297;SDS011;1661;53.572;10.174;2023-04-24T11:56:28;14.60;;;11.30;;
3297;SDS011;1661;53.572;10.174;2023-04-24T11:58:57;12.07;;;10.77;;
3297;SDS011;1661;53.572;10.174;2023-04-24T12:01:30;9.87;;;8.17;;
3297;SDS011;1661;53.572;10.174;2023-04-24T12:04:09;10.37;;;9.27;;
3297;SDS011;1661;53.572;10.174;2023-04-24T12:06:37;11.90;;;9.77;;
3297;SDS011;1661;53.572;10.174;2023-04-24T12:09:04;8.87;;;7.97;;
3297;SDS011;1661;53.572;10.174;2023-04-24T12:11:31;9.80;;;8.90;;
3297;SDS011;1661;53.572;10.174;2023-04-24T12:14:09;8.80;;;6.60;;
3297;SDS011;1661;53.572;10.174;2023-04-24T12:16:37;8.80;;;8.00;;
3297;SDS011;1661;53.572;10.174;2023-04-24T12:19:04;11.50;;;7.93;;
3297;SDS011;1661;53.572;10.174;2023-04-24T12:21:31;7.77;;;7.07;;
3297;SDS011;1661;53.572;10.174;2023-04-24T12:23:59;8.90;;;8.10;;
3297;SDS011;1661;53.572;10.174;2023-04-24T12:26:26;8.60;;;7.10;;
3297;SDS011;1661;53.572;10.174;2023-04-24T12:28:54;9.00;;;8.10;;
3297;SDS011;1661;53.572;10.174;2023-04-24T12:31:20;9.20;;;8.33;;
3297;SDS011;1661;53.572;10.174;2023-04-24T12:33:51;9.07;;;6.70;;
3297;SDS011;1661;53.572;10.174;2023-04-24T12:36:21;6.10;;;5.57;;
3297;SDS011;1661;53.572;10.174;2023-04-24T12:38:52;7.20;;;6.60;;
3297;SDS011;1661;53.572;10.174;2023-04-24T12:41:20;7.23;;;6.53;;
3297;SDS011;1661;53.572;10.174;2023-04-24T12:43:50;6.27;;;5.70;;
3297;SDS011;1661;53.572;10.174;2023-04-24T12:46:18;9.23;;;5.70;;
3297;SDS011;1661;53.572;10.174;2023-04-24T12:48:48;5.40;;;5.00;;
3297;SDS011;1661;53.572;10.174;2023-04-24T12:51:14;6.90;;;6.30;;
3297;SDS011;1661;53.572;10.174;2023-04-24T12:53:41;10.80;;;6.70;;
3297;SDS011;1661;53.572;10.174;2023-04-24T12:56:08;7.40;;;6.80;;
3297;SDS011;1661;53.572;10.174;2023-04-24T12:58:36;7.60;;;6.87;;
3297;SDS011;1661;53.572;10.174;2023-04-24T13:01:03;7.90;;;7.20;;
3297;SDS011;1661;53.572;10.174;2023-04-24T13:03:30;7.37;;;6.60;;
3297;SDS011;1661;53.572;10.174;2023-04-24T13:05:57;8.60;;;6.40;;
3297;SDS011;1661;53.572;10.174;2023-04-24T13:08:23;5.30;;;4.87;;
3297;SDS011;1661;53.572;10.174;2023-04-24T13:10:50;6.77;;;5.77;;
3297;SDS011;1661;53.572;10.174;2023-04-24T13:13:18;5.77;;;5.27;;
3297;SDS011;1661;53.572;10.174;2023-04-24T13:15:47;6.17;;;5.00;;
3297;SDS011;1661;53.572;10.174;2023-04-24T13:18:14;6.60;;;6.00;;
3297;SDS011;1661;53.572;10.174;2023-04-24T13:20:40;5.63;;;5.23;;
3297;SDS011;1661;53.572;10.174;2023-04-24T13:23:07;5.57;;;5.07;;
3297;SDS011;1661;53.572;10.174;2023-04-24T13:25:35;5.67;;;5.23;;
3297;SDS011;1661;53.572;10.174;2023-04-24T13:28:04;9.47;;;5.47;;
3297;SDS011;1661;53.572;10.174;2023-04-24T13:30:31;6.23;;;5.63;;
3297;SDS011;1661;53.572;10.174;2023-04-24T13:33:02;5.73;;;5.00;;
3297;SDS011;1661;53.572;10.174;2023-04-24T13:35:29;6.10;;;5.60;;
3297;SDS011;1661;53.572;10.174;2023-04-24T13:37:56;6.50;;;6.10;;
3297;SDS011;1661;53.572;10.174;2023-04-24T13:40:23;9.67;;;5.97;;
3297;SDS011;1661;53.572;10.174;2023-04-24T13:42:50;6.17;;;5.70;;
3297;SDS011;1661;53.572;10.174;2023-04-24T13:45:17;8.20;;;6.03;;
3297;SDS011;1661;53.572;10.174;2023-04-24T13:47:46;5.97;;;5.37;;
3297;SDS011;1661;53.572;10.174;2023-04-24T13:50:14;5.67;;;5.27;;
3297;SDS011;1661;53.572;10.174;2023-04-24T13:52:41;5.30;;;5.00;;
3297;SDS011;1661;53.572;10.174;2023-04-24T13:55:08;5.67;;;5.37;;
3297;SDS011;1661;53.572;10.174;2023-04-24T13:57:35;5.10;;;4.80;;
3297;SDS011;1661;53.572;10.174;2023-04-24T14:00:02;5.90;;;5.40;;
3297;SDS011;1661;53.572;10.174;2023-04-24T14:02:35;6.00;;;5.50;;
3297;SDS011;1661;53.572;10.174;2023-04-24T14:05:02;6.87;;;6.37;;
3297;SDS011;1661;53.572;10.174;2023-04-24T14:07:30;7.00;;;6.13;;
3297;SDS011;1661;53.572;10.174;2023-04-24T14:09:57;5.70;;;5.30;;
3297;SDS011;1661;53.572;10.174;2023-04-24T14:12:25;5.40;;;4.90;;
3297;SDS011;1661;53.572;10.174;2023-04-24T14:14:52;5.63;;;5.23;;
3297;SDS011;1661;53.572;10.174;2023-04-24T14:17:18;4.43;;;4.23;;
3297;SDS011;1661;53.572;10.174;2023-04-24T14:19:45;6.10;;;5.53;;
3297;SDS011;1661;53.572;10.174;2023-04-24T14:22:12;6.10;;;5.50;;
3297;SDS011;1661;53.572;10.174;2023-04-24T14:24:42;5.57;;;5.07;;
3297;SDS011;1661;53.572;10.174;2023-04-24T14:27:09;6.17;;;5.77;;
3297;SDS011;1661;53.572;10.174;2023-04-24T14:29:36;6.90;;;5.67;;
3297;SDS011;1661;53.572;10.174;2023-04-24T14:32:03;4.77;;;4.43;;
3297;SDS011;1661;53.572;10.174;2023-04-24T14:34:30;7.77;;;5.60;;
3297;SDS011;1661;53.572;10.174;2023-04-24T14:36:57;6.50;;;6.10;;
3297;SDS011;1661;53.572;10.174;2023-04-24T14:39:24;6.23;;;5.63;;
3297;SDS011;1661;53.572;10.174;2023-04-24T14:41:55;5.63;;;5.17;;
3297;SDS011;1661;53.572;10.174;2023-04-24T14:44:22;5.70;;;5.20;;
3297;SDS011;1661;53.572;10.174;2023-04-24T14:46:48;6.03;;;5.43;;
3297;SDS011;1661;53.572;10.174;2023-04-24T14:49:15;5.70;;;5.30;;
3297;SDS011;1661;53.572;10.174;2023-04-24T14:51:42;5.37;;;4.97;;
3297;SDS011;1661;53.572;10.174;2023-04-24T14:54:09;6.40;;;5.93;;
3297;SDS011;1661;53.572;10.174;2023-04-24T14:56:36;5.87;;;5.40;;
3297;SDS011;1661;53.572;10.174;2023-04-24T14:59:07;5.17;;;4.73;;
3297;SDS011;1661;53.572;10.174;2023-04-24T15:01:34;4.30;;;4.00;;
3297;SDS011;1661;53.572;10.174;2023-04-24T15:04:01;5.90;;;5.50;;
3297;SDS011;1661;53.572;10.174;2023-04-24T15:06:27;5.20;;;4.90;;